This is the latest recevied weather packets stored in our database for station/object HA5KDQ-10. If no packets are shown the sender has not sent any weather packets the latest 10 day(s).
| Time | Temp. | Humidity | Pressure | Rain* | Wind** | Luminosity | Snow |
|---|---|---|---|---|---|---|---|
| 1777388939 | 23.89° C | 18% | 962.4 hPa | - | - | - | - |
| 1777385338 | 25.56° C | 18% | 962.6 hPa | - | - | - | - |
| 1777381737 | 23.89° C | 18% | 963.2 hPa | - | - | - | - |
| 1777378135 | 22.78° C | 19% | 963.7 hPa | - | - | - | - |
| 1777370933 | 25° C | 17% | 964.3 hPa | - | - | - | - |
| 1777367332 | 22.78° C | 19% | 964.6 hPa | - | - | - | - |
| 1777363731 | 21.11° C | 21% | 964.5 hPa | - | - | - | - |
| 1777360130 | 19.44° C | 24% | 964.1 hPa | - | - | - | - |
| 1777356530 | 17.22° C | 26% | 963.9 hPa | - | - | - | - |
| 1777352929 | 14.44° C | 29% | 963.5 hPa | - | - | - | - |
| 1777349328 | 12.78° C | 30% | 963.2 hPa | - | - | - | - |
| 1777345726 | 11.11° C | 32% | 963 hPa | - | - | - | - |
| 1777342126 | 11.11° C | 29% | 963.2 hPa | - | - | - | - |
| 1777338525 | 11.11° C | 29% | 963.2 hPa | - | - | - | - |
| 1777334924 | 11.67° C | 28% | 963.4 hPa | - | - | - | - |
| 1777306135 | 18.33° C | 21% | 963.7 hPa | - | - | - | - |
| 1777295332 | 23.89° C | 16% | 965 hPa | - | - | - | - |
| 1777291731 | 25.56° C | 15% | 965.9 hPa | - | - | - | - |
| 1777288130 | 22.22° C | 16% | 966.4 hPa | - | - | - | - |
| 1777284528 | 22.78° C | 17% | 967.1 hPa | - | - | - | - |
| 1777280927 | 25° C | 16% | 967.6 hPa | - | - | - | - |
| 1777277327 | 22.78° C | 18% | 968 hPa | - | - | - | - |
| 1777273726 | 22.78° C | 19% | 968.2 hPa | - | - | - | - |
| 1777270125 | 21.67° C | 20% | 968.2 hPa | - | - | - | - |
| 1777266524 | 16.11° C | 24% | 967.9 hPa | - | - | - | - |
* Rain since midnight (hover to see other rain measurements)
** Current wind speed in m/s (hover to see current wind gust speed)